createdAt,value
2018-06-22T03:37:40.012Z,43.8
2018-06-22T03:38:30.121Z,43.8
2018-06-22T03:39:19.844Z,43.8
2018-06-22T03:40:09.643Z,43.8
2018-06-22T03:40:59.998Z,43.8
2018-06-22T03:41:50.618Z,43.8
2018-06-22T03:42:40.139Z,43.8
2018-06-22T03:43:30.154Z,43.8
2018-06-22T03:44:20.212Z,43.8
2018-06-22T03:45:10.548Z,43.8
2018-06-22T03:46:00.655Z,43.8
2018-06-22T03:46:51.018Z,43.8
2018-06-22T03:47:40.758Z,43.7
2018-06-22T03:48:30.577Z,43.7
2018-06-22T03:49:20.894Z,43.7
2018-06-22T03:50:10.697Z,43.7
2018-06-22T03:51:00.459Z,43.7
2018-06-22T03:51:50.532Z,43.7
2018-06-22T03:52:41.414Z,43.7
2018-06-22T03:53:30.937Z,43.7
2018-06-22T03:54:21.264Z,43.7
2018-06-22T03:55:11.609Z,43.7
2018-06-22T03:56:00.837Z,43.7
2018-06-22T03:56:52.013Z,43.6
2018-06-22T03:57:40.698Z,43.6
2018-06-22T03:58:31.633Z,43.6
2018-06-22T03:59:21.910Z,43.6
2018-06-22T04:00:11.737Z,43.6
2018-06-22T04:01:01.497Z,43.6
2018-06-22T04:01:51.332Z,43.6
2018-06-22T04:02:41.934Z,43.6
2018-06-22T04:03:31.221Z,43.6
2018-06-22T04:04:22.029Z,43.6
2018-06-22T04:05:11.543Z,43.6
2018-06-22T04:06:02.179Z,43.6
2018-06-22T04:06:51.957Z,43.6
2018-06-22T04:07:42.609Z,43.6
2018-06-22T04:08:32.367Z,43.6
2018-06-22T04:09:22.209Z,43.6
2018-06-22T04:10:12.181Z,43.6
2018-06-22T04:11:02.566Z,43.6
2018-06-22T04:11:52.609Z,43.6
2018-06-22T04:12:42.707Z,43.6
2018-06-22T04:13:32.461Z,43.6
2018-06-22T04:14:22.329Z,43.6
2018-06-22T04:15:13.149Z,43.6
2018-06-22T04:16:02.935Z,43.6
2018-06-22T04:16:52.246Z,43.6
2018-06-22T04:17:42.588Z,43.6
2018-06-22T04:18:32.349Z,43.6
2018-06-22T04:19:23.195Z,43.5
2018-06-22T04:20:12.280Z,43.6
2018-06-22T04:21:03.043Z,43.5
2018-06-22T04:21:53.374Z,43.6
2018-06-22T04:22:43.192Z,43.6
2018-06-22T04:23:33.225Z,43.5
2018-06-22T04:24:23.267Z,43.5
2018-06-22T04:25:13.947Z,43.5
2018-06-22T04:26:03.740Z,43.5
2018-06-22T04:26:53.460Z,43.5
2018-06-22T04:27:44.071Z,43.5
2018-06-22T04:28:34.155Z,43.5
2018-06-22T04:29:24.209Z,43.5
2018-06-22T04:30:13.192Z,43.5
2018-06-22T04:31:04.152Z,43.5
2018-06-22T04:31:54.445Z,43.5
2018-06-22T04:32:44.202Z,43.4
2018-06-22T04:33:34.570Z,43.4
2018-06-22T04:34:23.807Z,43.4
2018-06-22T04:35:13.092Z,43.4
2018-06-22T04:36:04.773Z,43.4
2018-06-22T04:36:54.839Z,43.4
2018-06-22T04:37:44.897Z,43.4
2018-06-22T04:38:34.897Z,43.4
2018-06-22T04:39:24.712Z,43.4
2018-06-22T04:40:14.497Z,43.4
2018-06-22T04:41:04.305Z,43.4
2018-06-22T04:41:54.919Z,43.4
2018-06-22T04:42:44.395Z,43.4
2018-06-22T04:43:35.037Z,43.4
2018-06-22T04:44:25.114Z,43.4
2018-06-22T04:45:15.178Z,43.4
2018-06-22T04:46:05.268Z,43.4
2018-06-22T04:46:55.286Z,43.4
2018-06-22T04:47:45.595Z,43.4
2018-06-22T04:48:34.864Z,43.4
2018-06-22T04:49:25.472Z,43.4
2018-06-22T04:50:15.893Z,43.4
2018-06-22T04:51:05.655Z,43.4
2018-06-22T04:51:55.767Z,43.4
2018-06-22T04:52:45.091Z,43.4
2018-06-22T04:53:35.869Z,43.3
2018-06-22T04:54:26.214Z,43.4
2018-06-22T04:55:16.209Z,43.3
2018-06-22T04:56:06.037Z,43.3
2018-06-22T04:56:56.045Z,43.3
2018-06-22T04:57:46.144Z,43.4
2018-06-22T04:58:36.443Z,43.3
2018-06-22T04:59:26.250Z,43.3
2018-06-22T05:00:16.332Z,43.3
2018-06-22T05:01:06.695Z,43.3
2018-06-22T05:01:56.455Z,43.3
2018-06-22T05:02:46.007Z,43.3
2018-06-22T05:03:37.298Z,43.3
2018-06-22T05:04:26.658Z,43.3
2018-06-22T05:05:17.062Z,43.3
2018-06-22T05:06:07.093Z,43.3
2018-06-22T05:06:56.588Z,43.3
2018-06-22T05:07:46.919Z,43.3
2018-06-22T05:08:37.279Z,43.3
2018-06-22T05:09:27.905Z,43.3
2018-06-22T05:10:16.893Z,43.3
2018-06-22T05:11:06.887Z,43.3
2018-06-22T05:11:57.520Z,43.3
2018-06-22T05:12:47.334Z,43.3
2018-06-22T05:13:37.634Z,43.3
2018-06-22T05:14:27.707Z,43.3
2018-06-22T05:15:17.496Z,43.3
2018-06-22T05:16:07.303Z,43.3
2018-06-22T05:16:57.371Z,43.2
2018-06-22T05:17:47.710Z,43.2
2018-06-22T05:18:37.777Z,43.3
2018-06-22T05:19:28.098Z,43.2
2018-06-22T05:20:18.167Z,43.2
2018-06-22T05:21:07.940Z,43.2
2018-06-22T05:21:58.303Z,43.2
2018-06-22T05:22:49.012Z,43.2
2018-06-22T05:23:37.862Z,43.2
2018-06-22T05:24:28.491Z,43.2
2018-06-22T05:25:18.342Z,43.2
2018-06-22T05:26:08.603Z,43.2
2018-06-22T05:26:57.809Z,43.2
2018-06-22T05:27:48.519Z,43.2
2018-06-22T05:28:38.262Z,43.1
2018-06-22T05:29:28.289Z,43.2
2018-06-22T05:30:19.124Z,43.1
2018-06-22T05:31:08.711Z,43.1
2018-06-22T05:31:58.794Z,43.1
2018-06-22T05:32:49.112Z,43.1
2018-06-22T05:33:38.951Z,43.1
2018-06-22T05:34:28.941Z,43.1
2018-06-22T05:35:19.035Z,43.1
2018-06-22T05:36:08.942Z,43.1
2018-06-22T05:36:59.511Z,43.1
2018-06-22T05:37:48.375Z,43.1
2018-06-22T05:38:39.286Z,43.1
2018-06-22T05:39:29.134Z,43.1
2018-06-22T05:40:19.712Z,43.1
2018-06-22T05:41:09.772Z,43.1
2018-06-22T05:41:59.537Z,43.1
2018-06-22T05:42:49.895Z,43.1
2018-06-22T05:43:39.379Z,43.1
2018-06-22T05:44:29.496Z,43.1
2018-06-22T05:45:19.504Z,43.1
2018-06-22T05:46:09.284Z,43.1
2018-06-22T05:47:00.202Z,43.1
2018-06-22T05:47:50.012Z,43.1
2018-06-22T05:48:39.494Z,43.1
2018-06-22T05:49:29.666Z,43.1
2018-06-22T05:50:20.499Z,43.1
2018-06-22T05:51:09.709Z,43.1
2018-06-22T05:52:00.072Z,43
2018-06-22T05:52:50.107Z,43
2018-06-22T05:53:40.481Z,43
2018-06-22T05:54:30.039Z,43
2018-06-22T05:55:20.082Z,43
2018-06-22T05:56:10.940Z,43
2018-06-22T05:57:00.990Z,43
2018-06-22T05:57:50.749Z,43
2018-06-22T05:58:41.131Z,43
2018-06-22T05:59:30.351Z,43
2018-06-22T06:00:20.663Z,43
2018-06-22T06:01:11.292Z,43
2018-06-22T06:02:01.161Z,43
2018-06-22T06:02:51.428Z,43
2018-06-22T06:03:41.809Z,42.9
2018-06-22T06:04:30.776Z,42.9
2018-06-22T06:05:21.620Z,43
2018-06-22T06:06:11.406Z,42.9
2018-06-22T06:07:01.768Z,42.9
2018-06-22T06:07:51.534Z,42.9
2018-06-22T06:08:41.643Z,42.9
2018-06-22T06:09:31.947Z,42.9
2018-06-22T06:10:21.765Z,42.9
2018-06-22T06:11:12.474Z,42.9
2018-06-22T06:12:02.122Z,42.9
2018-06-22T06:12:52.187Z,42.9
2018-06-22T06:13:41.990Z,42.9
2018-06-22T06:14:31.563Z,42.9
2018-06-22T06:15:22.375Z,42.9
2018-06-22T06:16:12.440Z,42.9
2018-06-22T06:17:02.615Z,42.9
2018-06-22T06:17:52.300Z,42.9
2018-06-22T06:18:42.849Z,42.9
2018-06-22T06:19:32.176Z,42.9
2018-06-22T06:20:22.027Z,42.9
2018-06-22T06:21:12.554Z,42.9
2018-06-22T06:22:02.328Z,42.9
2018-06-22T06:22:52.985Z,42.9
2018-06-22T06:23:42.476Z,42.8
2018-06-22T06:24:32.829Z,42.8
2018-06-22T06:25:22.595Z,42.8
2018-06-22T06:26:12.930Z,42.8
2018-06-22T06:27:03.022Z,42.8
2018-06-22T06:27:53.380Z,42.8
2018-06-22T06:28:42.875Z,42.8
2018-06-22T06:29:33.452Z,42.8
2018-06-22T06:30:23.560Z,42.8
2018-06-22T06:31:13.352Z,42.8
2018-06-22T06:32:03.176Z,42.8
2018-06-22T06:32:53.495Z,42.8
2018-06-22T06:33:43.252Z,42.8
2018-06-22T06:34:33.636Z,42.7
2018-06-22T06:35:23.676Z,42.7
2018-06-22T06:36:13.993Z,42.7
2018-06-22T06:37:03.486Z,42.7
2018-06-22T06:37:53.882Z,42.7
2018-06-22T06:38:44.168Z,42.7
2018-06-22T06:39:34.322Z,42.7
2018-06-22T06:40:24.387Z,42.7
2018-06-22T06:41:14.097Z,42.7
2018-06-22T06:42:03.207Z,42.7
2018-06-22T06:42:53.940Z,42.7
2018-06-22T06:43:43.737Z,42.7
2018-06-22T06:44:34.668Z,42.6
2018-06-22T06:45:24.426Z,42.6
2018-06-22T06:46:14.802Z,42.6
2018-06-22T06:47:04.298Z,42.6
2018-06-22T06:47:54.914Z,42.5
2018-06-22T06:48:44.401Z,42.5
2018-06-22T06:49:35.286Z,42.5
2018-06-22T06:50:24.825Z,42.5
2018-06-22T06:51:15.208Z,42.5
2018-06-22T06:52:05.212Z,42.5
2018-06-22T06:52:54.998Z,42.4
2018-06-22T06:53:44.798Z,42.5
2018-06-22T06:54:35.143Z,42.4
2018-06-22T06:55:24.712Z,42.5
2018-06-22T06:56:15.569Z,42.4
2018-06-22T06:57:05.086Z,42.4
2018-06-22T06:57:55.149Z,42.4
2018-06-22T06:58:45.758Z,42.4
2018-06-22T06:59:35.868Z,42.4
2018-06-22T07:00:25.863Z,42.4
2018-06-22T07:01:15.688Z,42.4
2018-06-22T07:02:06.035Z,42.4
2018-06-22T07:02:55.210Z,42.4
2018-06-22T07:03:45.301Z,42.4
2018-06-22T07:04:35.918Z,42.5
2018-06-22T07:05:25.993Z,42.5
2018-06-22T07:06:15.851Z,42.5
2018-06-22T07:07:06.431Z,42.5
2018-06-22T07:07:56.518Z,42.5
2018-06-22T07:08:46.224Z,42.5
2018-06-22T07:09:36.582Z,42.5
2018-06-22T07:10:26.381Z,42.6
2018-06-22T07:11:16.464Z,42.6
2018-06-22T07:12:06.231Z,42.6
2018-06-22T07:12:56.857Z,42.6
2018-06-22T07:13:46.639Z,42.6
2018-06-22T07:14:36.990Z,42.6
2018-06-22T07:15:27.035Z,42.6
2018-06-22T07:16:16.815Z,42.6
2018-06-22T07:17:07.135Z,42.7
2018-06-22T07:17:57.265Z,42.6
2018-06-22T07:18:47.355Z,42.7
2018-06-22T07:19:36.597Z,42.7
2018-06-22T07:20:27.151Z,42.7
2018-06-22T07:21:17.484Z,42.8
2018-06-22T07:22:07.002Z,42.8
2018-06-22T07:22:57.044Z,42.8
2018-06-22T07:23:47.722Z,42.8
2018-06-22T07:24:37.488Z,42.8
2018-06-22T07:25:27.274Z,42.8
2018-06-22T07:26:17.018Z,42.8
2018-06-22T07:27:07.193Z,42.8
2018-06-22T07:27:57.726Z,42.8
2018-06-22T07:28:48.072Z,42.9
2018-06-22T07:29:37.606Z,42.9
2018-06-22T07:30:27.928Z,42.9
2018-06-22T07:31:18.289Z,42.9
2018-06-22T07:32:08.374Z,42.9
2018-06-22T07:32:57.268Z,43
2018-06-22T07:33:48.454Z,43
2018-06-22T07:34:37.979Z,43
2018-06-22T07:35:28.381Z,43.1
2018-06-22T07:36:18.441Z,43.1
2018-06-22T07:37:08.176Z,43.1
2018-06-22T07:37:58.227Z,43.1
2018-06-22T07:38:48.878Z,43.1
2018-06-22T07:39:37.506Z,43.1
2018-06-22T07:40:28.991Z,43.1
2018-06-22T07:41:18.019Z,43.2
2018-06-22T07:42:09.106Z,43.2
2018-06-22T07:42:58.963Z,43.2
2018-06-22T07:43:49.090Z,43.3
2018-06-22T07:44:38.993Z,43.3
2018-06-22T07:45:28.343Z,43.3
2018-06-22T07:46:18.858Z,43.3
2018-06-22T07:47:09.231Z,43.4
2018-06-22T07:47:59.544Z,43.4
2018-06-22T07:48:49.319Z,43.4
2018-06-22T07:49:39.138Z,43.4
2018-06-22T07:50:29.459Z,43.4
2018-06-22T07:51:19.261Z,43.5
2018-06-22T07:52:09.873Z,43.5
2018-06-22T07:52:59.673Z,43.6
2018-06-22T07:53:49.762Z,43.6
2018-06-22T07:54:39.516Z,43.6
2018-06-22T07:55:29.300Z,43.6
2018-06-22T07:56:19.922Z,43.6
2018-06-22T07:57:10.445Z,43.7
2018-06-22T07:58:00.786Z,43.7
2018-06-22T07:58:50.437Z,43.8
2018-06-22T07:59:40.480Z,43.8
2018-06-22T08:00:30.577Z,43.8
2018-06-22T08:01:20.604Z,43.8
2018-06-22T08:02:10.640Z,43.8
2018-06-22T08:03:00.223Z,43.9
2018-06-22T08:03:50.487Z,43.9
2018-06-22T08:04:40.844Z,43.9
2018-06-22T08:05:30.896Z,43.9
2018-06-22T08:06:21.405Z,43.9
2018-06-22T08:07:11.031Z,44
2018-06-22T08:08:01.089Z,44
2018-06-22T08:08:51.177Z,44.1
2018-06-22T08:09:41.053Z,44.1
2018-06-22T08:10:31.291Z,44.1
2018-06-22T08:11:21.074Z,44.1
2018-06-22T08:12:10.914Z,44.2
2018-06-22T08:13:01.514Z,44.2
2018-06-22T08:13:51.289Z,44.3
2018-06-22T08:14:41.612Z,44.3
2018-06-22T08:15:30.872Z,44.3
2018-06-22T08:16:21.753Z,44.3
2018-06-22T08:17:11.518Z,44.3
2018-06-22T08:18:01.871Z,44.4
2018-06-22T08:18:52.017Z,44.4
2018-06-22T08:19:41.712Z,44.4
2018-06-22T08:20:31.785Z,44.4
2018-06-22T08:21:21.910Z,44.5
2018-06-22T08:22:12.206Z,44.5
2018-06-22T08:23:02.016Z,44.6
2018-06-22T08:23:52.356Z,44.6
2018-06-22T08:24:41.966Z,44.6
2018-06-22T08:25:32.491Z,44.6
2018-06-22T08:26:21.833Z,44.6
2018-06-22T08:27:12.607Z,44.7
2018-06-22T08:28:02.725Z,44.7
2018-06-22T08:28:52.468Z,44.8
2018-06-22T08:29:41.940Z,44.8
2018-06-22T08:30:32.835Z,44.8
2018-06-22T08:31:22.920Z,44.8
2018-06-22T08:32:12.440Z,44.8
2018-06-22T08:33:02.788Z,44.9
2018-06-22T08:33:52.378Z,44.9
2018-06-22T08:34:42.924Z,44.9
2018-06-22T08:35:32.963Z,45
2018-06-22T08:36:23.320Z,45
2018-06-22T08:37:12.827Z,45
2018-06-22T08:38:02.684Z,45.1
2018-06-22T08:38:52.977Z,45.1
2018-06-22T08:39:43.031Z,45.1
2018-06-22T08:40:33.642Z,45.1
2018-06-22T08:41:23.417Z,45.2
2018-06-22T08:42:13.948Z,45.2
2018-06-22T08:43:03.577Z,45.3
2018-06-22T08:44:43.942Z,45.3
2018-06-22T08:45:34.022Z,45.3
2018-06-22T08:46:23.260Z,45.4
2018-06-22T08:47:14.179Z,45.4
2018-06-22T08:48:04.235Z,45.4
2018-06-22T08:48:54.466Z,45.4
2018-06-22T08:49:44.132Z,45.5
2018-06-22T08:50:34.116Z,45.5
2018-06-22T08:51:23.966Z,45.6
2018-06-22T08:52:14.271Z,45.6
2018-06-22T08:53:04.061Z,45.6
2018-06-22T08:53:54.701Z,45.6
2018-06-22T08:54:44.443Z,45.7
2018-06-22T08:55:34.572Z,45.7
2018-06-22T08:56:24.895Z,45.7
2018-06-22T08:57:14.186Z,45.8
2018-06-22T08:58:04.517Z,45.8
2018-06-22T08:58:55.049Z,45.8
2018-06-22T08:59:44.869Z,45.8
2018-06-22T09:00:34.942Z,45.9
2018-06-22T09:01:26.651Z,45.9
2018-06-22T09:02:15.098Z,45.9
2018-06-22T09:03:05.208Z,46
2018-06-22T09:03:55.449Z,46
2018-06-22T09:04:45.292Z,46
2018-06-22T09:05:35.597Z,46.1
2018-06-22T09:06:25.078Z,46.1
2018-06-22T09:07:15.159Z,46.1
2018-06-22T09:08:05.884Z,46.1
2018-06-22T09:08:55.831Z,46.2
2018-06-22T09:09:45.079Z,46.3
2018-06-22T09:10:35.679Z,46.3
2018-06-22T09:11:25.481Z,46.3
2018-06-22T09:12:16.104Z,46.3
2018-06-22T09:13:06.159Z,46.3
2018-06-22T09:13:56.260Z,46.4
2018-06-22T09:14:46.021Z,46.4
2018-06-22T09:15:36.366Z,46.4
2018-06-22T09:16:25.883Z,46.5
2018-06-22T09:17:16.225Z,46.5
2018-06-22T09:18:06.023Z,46.5
2018-06-22T09:18:56.085Z,46.6
2018-06-22T09:19:46.453Z,46.6
2018-06-22T09:20:36.495Z,46.6
2018-06-22T09:21:26.272Z,46.7
2018-06-22T09:22:16.333Z,46.7
2018-06-22T09:23:06.428Z,46.8
2018-06-22T09:23:56.996Z,46.8
2018-06-22T09:24:46.800Z,46.8
2018-06-22T09:25:37.140Z,46.8
2018-06-22T09:26:26.649Z,46.9
2018-06-22T09:27:17.002Z,46.9
2018-06-22T09:28:06.780Z,46.9
2018-06-22T09:28:57.173Z,46.9
2018-06-22T09:29:47.247Z,47
2018-06-22T09:30:37.039Z,47
2018-06-22T09:31:27.700Z,47.1
2018-06-22T09:32:17.138Z,47.1
2018-06-22T09:33:07.798Z,47.1
2018-06-22T09:33:57.888Z,47.2
2018-06-22T09:34:47.655Z,47.2
2018-06-22T09:35:37.972Z,47.2
2018-06-22T09:36:28.049Z,47.3
2018-06-22T09:37:18.108Z,47.3
2018-06-22T09:38:07.402Z,47.3
2018-06-22T09:38:57.958Z,47.3
2018-06-22T09:39:48.283Z,47.4
2018-06-22T09:40:38.356Z,47.4
2018-06-22T09:41:28.439Z,47.4
2018-06-22T09:42:18.485Z,47.4
2018-06-22T09:43:08.279Z,47.5
2018-06-22T09:43:58.047Z,47.5
2018-06-22T09:44:48.398Z,47.6
2018-06-22T09:45:38.495Z,47.6
2018-06-22T09:46:27.484Z,47.6
2018-06-22T09:47:18.597Z,47.7
2018-06-22T09:48:07.793Z,47.8
2018-06-22T09:48:58.193Z,47.8
2018-06-22T09:49:48.514Z,47.8
2018-06-22T09:50:38.284Z,47.8
2018-06-22T09:51:28.914Z,47.8
2018-06-22T09:52:19.270Z,47.9
2018-06-22T09:53:09.579Z,47.9
2018-06-22T09:53:58.833Z,47.9
2018-06-22T09:54:49.163Z,48
2018-06-22T09:55:38.949Z,48
2018-06-22T09:56:29.563Z,48
2018-06-22T09:57:19.355Z,48.1
2018-06-22T09:58:09.715Z,48.1
2018-06-22T09:58:58.652Z,48.1
2018-06-22T09:59:48.817Z,48.2
2018-06-22T10:00:39.080Z,48.2
2018-06-22T10:01:29.420Z,48.3
2018-06-22T10:02:20.188Z,48.3
2018-06-22T10:03:09.810Z,48.3
2018-06-22T10:03:59.932Z,48.3
2018-06-22T10:04:50.454Z,48.4
2018-06-22T10:05:39.214Z,48.4
2018-06-22T10:06:29.809Z,48.4
2018-06-22T10:07:20.417Z,48.5
2018-06-22T10:08:10.433Z,48.5
2018-06-22T10:09:00.094Z,48.6
2018-06-22T10:09:50.603Z,48.6
2018-06-22T10:10:40.641Z,48.6
2018-06-22T10:11:31.656Z,48.6
2018-06-22T10:12:20.495Z,48.7
2018-06-22T10:13:10.831Z,48.7
2018-06-22T10:14:00.618Z,48.8
2018-06-22T10:14:50.978Z,48.8
2018-06-22T10:15:41.038Z,48.8
2018-06-22T10:16:31.140Z,48.8
2018-06-22T10:17:21.225Z,48.9
2018-06-22T10:18:11.229Z,48.9
2018-06-22T10:19:01.081Z,48.9
2018-06-22T10:19:51.092Z,48.9
2018-06-22T10:20:41.467Z,49
2018-06-22T10:21:31.497Z,49.1
2018-06-22T10:22:21.075Z,49.1
2018-06-22T10:23:11.078Z,49.1
2018-06-22T10:24:01.168Z,49.2
2018-06-22T10:24:50.936Z,49.2
2018-06-22T10:25:41.841Z,49.2
2018-06-22T10:26:31.670Z,49.3
2018-06-22T10:27:22.227Z,49.3
2018-06-22T10:28:12.051Z,49.3
2018-06-22T10:29:01.270Z,49.4
2018-06-22T10:29:52.162Z,49.4
2018-06-22T10:30:41.669Z,49.4
2018-06-22T10:31:32.340Z,49.4
2018-06-22T10:32:22.352Z,49.5
2018-06-22T10:33:11.830Z,49.5
2018-06-22T10:34:02.812Z,49.6
2018-06-22T10:34:52.259Z,49.6
2018-06-22T10:35:42.350Z,49.6
2018-06-22T10:36:32.111Z,49.7
2018-06-22T10:37:22.493Z,49.7
2018-06-22T10:38:12.555Z,49.8
2018-06-22T10:39:02.296Z,49.8
2018-06-22T10:39:52.664Z,49.8
2018-06-22T10:40:43.039Z,49.8
2018-06-22T10:41:33.094Z,49.9
2018-06-22T10:42:22.589Z,49.9
2018-06-22T10:43:12.947Z,49.9
2018-06-22T10:44:03.280Z,49.9
2018-06-22T10:44:53.367Z,50
2018-06-22T10:45:43.579Z,50
2018-06-22T10:46:33.181Z,50
2018-06-22T10:47:23.543Z,50.1
2018-06-22T10:48:13.319Z,50.1
2018-06-22T10:49:03.682Z,50.1
2018-06-22T10:49:52.912Z,50.1
2018-06-22T10:50:43.574Z,50.1
2018-06-22T10:51:34.411Z,50.2
2018-06-22T10:52:23.076Z,50.2
2018-06-22T10:53:13.719Z,50.3
2018-06-22T10:54:03.222Z,50.3
2018-06-22T10:54:53.539Z,50.3
2018-06-22T10:55:43.337Z,50.3
2018-06-22T10:56:34.255Z,50.4
2018-06-22T10:57:24.090Z,50.4
2018-06-22T10:58:13.655Z,50.4
2018-06-22T10:59:04.421Z,50.4
2018-06-22T10:59:54.489Z,50.4
2018-06-22T11:00:44.576Z,50.4
2018-06-22T11:01:34.078Z,50.5
2018-06-22T11:02:24.700Z,50.5
2018-06-22T11:03:14.483Z,50.5
2018-06-22T11:04:04.815Z,50.4
2018-06-22T11:04:54.595Z,50.4
2018-06-22T11:05:45.373Z,50.4
2018-06-22T11:06:34.998Z,50.4
2018-06-22T11:07:24.531Z,50.4
2018-06-22T11:08:15.136Z,50.4
2018-06-22T11:09:05.225Z,50.4
2018-06-22T11:09:54.807Z,50.4
2018-06-22T11:10:45.343Z,50.4
2018-06-22T11:11:35.408Z,50.4
2018-06-22T11:12:25.204Z,50.4
2018-06-22T11:13:14.708Z,50.4
2018-06-22T11:14:06.626Z,50.4
2018-06-22T11:14:55.699Z,50.4
2018-06-22T11:15:45.834Z,50.4
2018-06-22T11:16:35.873Z,50.4
2018-06-22T11:17:26.176Z,50.4
2018-06-22T11:18:16.271Z,50.4
2018-06-22T11:19:06.070Z,50.4
2018-06-22T11:19:55.780Z,50.3
2018-06-22T11:20:46.149Z,50.3
2018-06-22T11:21:35.942Z,50.3
2018-06-22T11:22:25.717Z,50.3
2018-06-22T11:23:15.230Z,50.3
2018-06-22T11:24:06.386Z,50.3
2018-06-22T11:24:56.125Z,50.3
2018-06-22T11:25:46.311Z,50.3
2018-06-22T11:26:36.350Z,50.3
2018-06-22T11:27:26.192Z,50.3
2018-06-22T11:28:16.782Z,50.3
2018-06-22T11:29:06.291Z,50.3
2018-06-22T11:29:56.895Z,50.3
2018-06-22T11:30:47.352Z,50.3
2018-06-22T11:31:36.133Z,50.3
2018-06-22T11:32:27.033Z,50.3
2018-06-22T11:33:16.835Z,50.2
2018-06-22T11:34:07.204Z,50.2
2018-06-22T11:34:56.959Z,50.2
2018-06-22T11:35:47.902Z,50.2
2018-06-22T11:36:37.364Z,50.2
2018-06-22T11:37:27.451Z,50.2
2018-06-22T11:38:17.485Z,50.2
2018-06-22T11:39:07.277Z,50.2
2018-06-22T11:39:57.617Z,50.2
2018-06-22T11:40:47.394Z,50.2
2018-06-22T11:41:37.752Z,50.1
2018-06-22T11:42:27.548Z,50.1
2018-06-22T11:43:17.581Z,50.1
2018-06-22T11:44:07.663Z,50.1
2018-06-22T11:44:57.733Z,50.1
2018-06-22T11:45:48.073Z,50.1
2018-06-22T11:46:38.133Z,50.1
2018-06-22T11:47:27.711Z,50.1
2018-06-22T11:48:18.272Z,50.1
2018-06-22T11:49:08.064Z,50.1
2018-06-22T11:49:58.421Z,50.1
2018-06-22T11:50:48.224Z,50.1
2018-06-22T11:51:37.712Z,50.1
2018-06-22T11:52:28.593Z,50.1
2018-06-22T11:53:18.091Z,50.1
2018-06-22T11:54:08.447Z,50.1
2018-06-22T11:54:58.763Z,50
2018-06-22T11:55:48.598Z,50.1
2018-06-22T11:56:38.629Z,50
2018-06-22T11:57:28.428Z,50
2018-06-22T11:58:19.027Z,50
2018-06-22T11:59:09.771Z,50
2018-06-22T11:59:59.151Z,50
2018-06-22T12:00:49.278Z,50
2018-06-22T12:01:39.610Z,50
2018-06-22T12:02:29.066Z,50
2018-06-22T12:03:19.141Z,49.9
2018-06-22T12:04:09.303Z,49.9
2018-06-22T12:04:59.555Z,49.9
2018-06-22T12:05:49.340Z,49.9
2018-06-22T12:06:39.710Z,49.9
2018-06-22T12:07:29.784Z,49.9
2018-06-22T12:08:19.537Z,49.9
2018-06-22T12:09:09.330Z,49.9
2018-06-22T12:09:59.683Z,49.9
2018-06-22T12:10:49.723Z,49.9
2018-06-22T12:11:39.825Z,49.9
2018-06-22T12:12:29.862Z,49.9
2018-06-22T12:13:19.680Z,49.9
2018-06-22T12:14:10.301Z,49.9
2018-06-22T12:14:59.882Z,49.9
2018-06-22T12:15:49.542Z,49.9
2018-06-22T12:16:40.470Z,49.9
2018-06-22T12:17:30.534Z,49.9
2018-06-22T12:18:20.556Z,49.9
2018-06-22T12:19:10.943Z,49.8
2018-06-22T12:20:00.454Z,49.8
2018-06-22T12:20:50.808Z,49.8
2018-06-22T12:21:40.304Z,49.8
2018-06-22T12:22:30.659Z,49.8
2018-06-22T12:23:20.411Z,49.8
2018-06-22T12:24:11.039Z,49.8
2018-06-22T12:25:01.081Z,49.8
2018-06-22T12:25:50.891Z,49.8
2018-06-22T12:26:40.946Z,49.8
2018-06-22T12:27:31.193Z,49.8
2018-06-22T12:28:21.375Z,49.8
2018-06-22T12:29:10.585Z,49.8
2018-06-22T12:30:01.552Z,49.8
2018-06-22T12:30:51.641Z,49.7
2018-06-22T12:31:41.368Z,49.8
2018-06-22T12:32:31.415Z,49.8
2018-06-22T12:33:21.283Z,49.8
2018-06-22T12:34:11.328Z,49.7
2018-06-22T12:35:01.053Z,49.7
2018-06-22T12:35:51.397Z,49.7
2018-06-22T12:36:41.713Z,49.7
2018-06-22T12:37:32.069Z,49.7
2018-06-22T12:38:22.195Z,49.7
2018-06-22T12:39:11.910Z,49.7
2018-06-22T12:40:02.295Z,49.7
2018-06-22T12:40:52.378Z,49.6
2018-06-22T12:41:42.116Z,49.6
2018-06-22T12:42:32.463Z,49.6
2018-06-22T12:43:22.340Z,49.6
2018-06-22T12:44:12.599Z,49.6
2018-06-22T12:45:03.241Z,49.6
2018-06-22T12:45:52.437Z,49.6
2018-06-22T12:46:42.587Z,49.6
2018-06-22T12:47:32.831Z,49.6
2018-06-22T12:48:22.384Z,49.6
2018-06-22T12:49:12.977Z,49.6
2018-06-22T12:50:02.802Z,49.6
2018-06-22T12:50:52.565Z,49.6
2018-06-22T12:51:42.648Z,49.6
2018-06-22T12:52:32.690Z,49.6
2018-06-22T12:53:23.055Z,49.6
2018-06-22T12:54:12.829Z,49.6
2018-06-22T12:55:03.523Z,49.5
2018-06-22T12:55:52.977Z,49.6
2018-06-22T12:56:42.847Z,49.5
2018-06-22T12:57:33.743Z,49.5
2018-06-22T12:58:23.697Z,49.5
2018-06-22T12:59:13.800Z,49.5
2018-06-22T13:00:03.292Z,49.5
2018-06-22T13:00:53.625Z,49.5
2018-06-22T13:01:43.999Z,49.5
2018-06-22T13:02:33.787Z,49.4
2018-06-22T13:03:23.539Z,49.4
2018-06-22T13:04:13.602Z,49.4
2018-06-22T13:05:03.979Z,49.4
2018-06-22T13:05:53.529Z,49.4
2018-06-22T13:06:44.357Z,49.4
2018-06-22T13:07:34.433Z,49.4
2018-06-22T13:08:23.633Z,49.4
2018-06-22T13:09:14.595Z,49.4
2018-06-22T13:10:04.296Z,49.4
2018-06-22T13:10:54.558Z,49.4
2018-06-22T13:11:44.734Z,49.4
2018-06-22T13:12:34.646Z,49.4
2018-06-22T13:13:24.592Z,49.4
2018-06-22T13:14:14.364Z,49.4
2018-06-22T13:15:04.692Z,49.4
2018-06-22T13:15:55.020Z,49.4
2018-06-22T13:16:44.514Z,49.4
2018-06-22T13:17:34.879Z,49.3
2018-06-22T13:18:25.212Z,49.3
2018-06-22T13:19:15.298Z,49.3
2018-06-22T13:20:05.095Z,49.3
2018-06-22T13:20:55.112Z,49.3
2018-06-22T13:21:45.503Z,49.3
2018-06-22T13:22:34.432Z,49.3
2018-06-22T13:23:25.333Z,49.3
2018-06-22T13:24:15.726Z,49.3
2018-06-22T13:25:05.471Z,49.3
2018-06-22T13:25:55.785Z,49.3
2018-06-22T13:26:45.972Z,49.3
2018-06-22T13:27:35.629Z,49.3
2018-06-22T13:28:25.439Z,49.3
2018-06-22T13:29:16.032Z,49.3
2018-06-22T13:30:06.125Z,49.2
2018-06-22T13:30:56.061Z,49.3
2018-06-22T13:31:46.255Z,49.3
2018-06-22T13:32:35.484Z,49.2
2018-06-22T13:33:26.125Z,49.3
2018-06-22T13:34:16.437Z,49.2
2018-06-22T13:35:06.503Z,49.2
2018-06-22T13:35:56.555Z,49.2
2018-06-22T13:36:46.626Z,49.2
2018-06-22T13:37:36.417Z,49.2
2018-06-22T13:38:26.501Z,49.2
2018-06-22T13:39:16.299Z,49.2
2018-06-22T13:40:06.891Z,49.2
2018-06-22T13:40:56.416Z,49.1
2018-06-22T13:41:46.478Z,49.1
2018-06-22T13:42:37.092Z,49.1
2018-06-22T13:43:26.867Z,49.1
2018-06-22T13:44:17.218Z,49.1
2018-06-22T13:45:07.303Z,49.1
2018-06-22T13:45:57.354Z,49.1
2018-06-22T13:46:46.336Z,49.1
2018-06-22T13:47:37.199Z,49.1
2018-06-22T13:48:27.529Z,49.1
2018-06-22T13:49:17.613Z,49.1
2018-06-22T13:50:07.158Z,49.1
2018-06-22T13:50:57.175Z,49.1
2018-06-22T13:51:47.810Z,49.1
2018-06-22T13:52:37.897Z,49.1
2018-06-22T13:53:27.960Z,49.1
2018-06-22T13:54:17.737Z,49
2018-06-22T13:55:07.535Z,49.1
2018-06-22T13:55:57.579Z,49
2018-06-22T13:56:48.922Z,49
2018-06-22T13:57:37.998Z,49
2018-06-22T13:58:28.329Z,49
2018-06-22T13:59:18.113Z,49
2018-06-22T14:00:08.460Z,49
2018-06-22T14:00:58.019Z,49
2018-06-22T14:01:48.611Z,49
2018-06-22T14:02:38.368Z,48.9
2018-06-22T14:03:28.691Z,48.9
2018-06-22T14:04:18.840Z,48.9
2018-06-22T14:05:08.574Z,48.9
2018-06-22T14:05:58.644Z,48.9
2018-06-22T14:06:48.431Z,48.9
2018-06-22T14:07:38.510Z,48.9
2018-06-22T14:08:28.794Z,48.9
2018-06-22T14:09:19.610Z,48.9
2018-06-22T14:10:08.947Z,48.9
2018-06-22T14:10:59.032Z,48.9
2018-06-22T14:11:49.113Z,48.9
2018-06-22T14:12:38.928Z,48.9
2018-06-22T14:13:29.451Z,48.9
2018-06-22T14:14:19.270Z,48.9
2018-06-22T14:15:09.062Z,48.9
2018-06-22T14:15:59.658Z,48.9
2018-06-22T14:16:49.750Z,48.9
2018-06-22T14:17:39.798Z,48.9
2018-06-22T14:18:29.878Z,48.8
2018-06-22T14:19:19.924Z,48.8
2018-06-22T14:20:10.457Z,48.8
2018-06-22T14:20:59.785Z,48.8
2018-06-22T14:21:49.320Z,48.8
2018-06-22T14:22:39.631Z,48.8
2018-06-22T14:23:29.708Z,48.8
2018-06-22T14:24:19.783Z,48.8
2018-06-22T14:25:10.395Z,48.8
2018-06-22T14:26:00.439Z,48.8
2018-06-22T14:26:50.515Z,48.8
2018-06-22T14:27:40.280Z,48.8
2018-06-22T14:28:30.366Z,48.8
2018-06-22T14:29:20.490Z,48.8
2018-06-22T14:30:10.765Z,48.8
2018-06-22T14:31:01.467Z,48.8
2018-06-22T14:31:50.650Z,48.8
2018-06-22T14:32:40.397Z,48.8
2018-06-22T14:33:30.776Z,48.7
2018-06-22T14:34:20.800Z,48.7
2018-06-22T14:35:10.614Z,48.7
2018-06-22T14:36:00.935Z,48.7
2018-06-22T14:36:51.304Z,48.7
2018-06-22T14:37:40.788Z,48.7
2018-06-22T14:38:30.908Z,48.7
2018-06-22T14:39:20.728Z,48.7
2018-06-22T14:40:11.045Z,48.7
2018-06-22T14:41:01.126Z,48.7
2018-06-22T14:41:50.685Z,48.7
2018-06-22T14:42:40.707Z,48.6
2018-06-22T14:43:32.221Z,48.6
2018-06-22T14:44:21.414Z,48.6
2018-06-22T14:45:11.460Z,48.6
2018-06-22T14:46:01.249Z,48.6
2018-06-22T14:46:51.596Z,48.6
2018-06-22T14:47:41.383Z,48.6